Time,TemperatureF,DewpointF,PressureIn,WindDirection,WindDirectionDegrees,WindSpeedMPH,WindSpeedGustMPH,Humidity,HourlyPrecipIn,Conditions,Clouds,dailyrainin,SoftwareType,DateUTC
2013-01-18 00:17:00,42.7,41.0,29.75,NE,52,13.0,20.0,92,0.00,,,0.00,weatherlink.com 1.10,2013-01-18 05:17:00,
2013-01-18 00:32:00,42.9,41.0,29.76,ENE,68,5.0,21.0,92,0.00,,,0.00,weatherlink.com 1.10,2013-01-18 05:32:00,
2013-01-18 00:47:00,42.9,41.0,29.79,North,358,5.0,18.0,92,0.00,,,0.00,weatherlink.com 1.10,2013-01-18 05:47:00,
2013-01-18 01:02:00,43.0,41.0,29.82,NNW,335,11.0,16.0,91,0.00,,,0.00,weatherlink.com 1.10,2013-01-18 06:02:00,
2013-01-18 01:18:00,42.8,40.0,29.84,NE,34,18.0,22.0,91,0.00,,,0.00,weatherlink.com 1.10,2013-01-18 06:18:00,
2013-01-18 01:33:00,42.8,40.0,29.87,WNW,297,2.0,15.0,91,0.00,,,0.00,weatherlink.com 1.10,2013-01-18 06:33:00,
2013-01-18 01:48:00,42.5,40.0,29.89,NNE,32,9.0,14.0,91,0.00,,,0.00,weatherlink.com 1.10,2013-01-18 06:48:00,
2013-01-18 02:03:00,42.0,40.0,29.90,NNE,30,8.0,23.0,92,0.00,,,0.00,weatherlink.com 1.10,2013-01-18 07:03:00,
2013-01-18 02:18:00,41.4,39.0,29.91,North,355,20.0,22.0,92,0.00,,,0.00,weatherlink.com 1.10,2013-01-18 07:18:00,
2013-01-18 02:33:00,40.9,39.0,29.91,NNW,328,7.0,18.0,92,0.00,,,0.00,weatherlink.com 1.10,2013-01-18 07:33:00,
2013-01-18 02:49:00,40.7,39.0,29.92,NNE,12,6.0,19.0,92,0.00,,,0.00,weatherlink.com 1.10,2013-01-18 07:49:00,
2013-01-18 03:04:00,40.4,38.0,29.91,NE,45,9.0,20.0,91,0.00,,,0.00,weatherlink.com 1.10,2013-01-18 08:04:00,
2013-01-18 03:19:00,40.0,38.0,29.93,NNE,12,13.0,19.0,91,0.00,,,0.00,weatherlink.com 1.10,2013-01-18 08:19:00,
2013-01-18 03:34:00,38.8,36.0,29.96,NNE,25,8.0,16.0,91,0.00,,,0.00,weatherlink.com 1.10,2013-01-18 08:34:00,
2013-01-18 03:49:00,-999.0,-99.9,29.98,North,-999,-999.0,-999.0,-999,0.00,,,0.00,weatherlink.com 1.10,2013-01-18 08:49:00,
2013-01-18 04:07:00,-999.0,-99.9,30.00,North,-999,-999.0,-999.0,-999,0.00,,,0.00,weatherlink.com 1.10,2013-01-18 09:07:00,
2013-01-18 04:19:00,-999.0,-99.9,29.99,North,-999,-999.0,-999.0,-999,0.00,,,0.00,weatherlink.com 1.10,2013-01-18 09:19:00,
2013-01-18 04:50:00,-999.0,-99.9,30.00,North,-999,-999.0,-999.0,-999,0.00,,,0.00,weatherlink.com 1.10,2013-01-18 09:50:00,
2013-01-18 05:06:00,-999.0,-99.9,30.02,North,-999,-999.0,-999.0,-999,0.00,,,0.00,weatherlink.com 1.10,2013-01-18 10:06:00,
2013-01-18 05:20:00,-999.0,-99.9,30.03,North,-999,-999.0,-999.0,-999,0.00,,,0.00,weatherlink.com 1.10,2013-01-18 10:20:00,
2013-01-18 05:36:00,-999.0,-99.9,30.04,North,-999,-999.0,-999.0,-999,0.00,,,0.00,weatherlink.com 1.10,2013-01-18 10:36:00,
2013-01-18 05:51:00,-999.0,-99.9,30.05,North,-999,-999.0,-999.0,-999,0.00,,,0.00,weatherlink.com 1.10,2013-01-18 10:51:00,
2013-01-18 06:06:00,-999.0,-99.9,30.07,North,-999,-999.0,-999.0,-999,0.00,,,0.00,weatherlink.com 1.10,2013-01-18 11:06:00,
2013-01-18 06:21:00,-999.0,-99.9,30.08,North,-999,-999.0,-999.0,-999,0.00,,,0.00,weatherlink.com 1.10,2013-01-18 11:21:00,
2013-01-18 06:37:00,-999.0,-99.9,30.09,North,-999,-999.0,-999.0,-999,0.00,,,0.00,weatherlink.com 1.10,2013-01-18 11:37:00,
2013-01-18 06:51:00,-999.0,-99.9,30.10,North,-999,-999.0,-999.0,-999,0.00,,,0.00,weatherlink.com 1.10,2013-01-18 11:51:00,
2013-01-18 07:07:00,-999.0,-99.9,30.11,North,-999,-999.0,-999.0,-999,0.00,,,0.00,weatherlink.com 1.10,2013-01-18 12:07:00,
2013-01-18 07:22:00,-999.0,-99.9,30.12,North,-999,-999.0,-999.0,-999,0.00,,,0.00,weatherlink.com 1.10,2013-01-18 12:22:00,
2013-01-18 07:37:00,-999.0,-99.9,30.12,North,-999,-999.0,-999.0,-999,0.00,,,0.00,weatherlink.com 1.10,2013-01-18 12:37:00,
2013-01-18 07:52:00,37.7,35.0,30.13,NNW,334,4.0,6.0,91,0.00,,,0.00,weatherlink.com 1.10,2013-01-18 12:52:00,
2013-01-18 08:22:00,38.3,36.0,30.16,North,359,8.0,8.0,90,0.00,,,0.00,weatherlink.com 1.10,2013-01-18 13:22:00,
2013-01-18 08:38:00,38.9,36.0,30.17,NNW,338,4.0,8.0,89,0.00,,,0.00,weatherlink.com 1.10,2013-01-18 13:38:00,
2013-01-18 08:53:00,39.7,36.0,30.18,NNE,25,6.0,12.0,86,0.00,,,0.00,weatherlink.com 1.10,2013-01-18 13:53:00,
2013-01-18 09:08:00,39.9,36.0,30.20,NE,50,12.0,15.0,84,0.00,,,0.00,weatherlink.com 1.10,2013-01-18 14:08:00,
2013-01-18 09:23:00,40.4,36.0,30.21,NNE,27,6.0,10.0,84,0.00,,,0.00,weatherlink.com 1.10,2013-01-18 14:23:00,
2013-01-18 09:38:00,40.5,35.0,30.23,NE,34,12.0,15.0,82,0.00,,,0.00,weatherlink.com 1.10,2013-01-18 14:38:00,
2013-01-18 09:53:00,40.9,36.0,30.23,ENE,61,7.0,13.0,81,0.00,,,0.00,weatherlink.com 1.10,2013-01-18 14:53:00,
2013-01-18 10:09:00,41.5,36.0,30.23,NNE,29,2.0,14.0,80,0.00,,,0.00,weatherlink.com 1.10,2013-01-18 15:09:00,
2013-01-18 10:24:00,42.1,35.0,30.24,NE,41,6.0,16.0,76,0.00,,,0.00,weatherlink.com 1.10,2013-01-18 15:24:00,
2013-01-18 10:39:00,42.5,35.0,30.24,NNE,29,11.0,15.0,74,0.00,,,0.00,weatherlink.com 1.10,2013-01-18 15:39:00,
2013-01-18 10:54:00,42.7,35.0,30.24,NNE,19,14.0,17.0,75,0.00,,,0.00,weatherlink.com 1.10,2013-01-18 15:54:00,
2013-01-18 11:09:00,43.0,36.0,30.24,ENE,58,13.0,14.0,75,0.00,,,0.00,weatherlink.com 1.10,2013-01-18 16:09:00,
2013-01-18 11:24:00,43.6,35.0,30.23,NE,46,13.0,16.0,72,0.00,,,0.00,weatherlink.com 1.10,2013-01-18 16:24:00,
2013-01-18 11:40:00,43.9,34.0,30.22,NNE,27,13.0,17.0,69,0.00,,,0.00,weatherlink.com 1.10,2013-01-18 16:40:00,
2013-01-18 11:56:00,44.5,34.0,30.22,NNW,329,7.0,18.0,68,0.00,,,0.00,weatherlink.com 1.10,2013-01-18 16:56:00,
2013-01-18 12:10:00,44.5,35.0,30.22,NE,44,17.0,17.0,69,0.00,,,0.00,weatherlink.com 1.10,2013-01-18 17:10:00,
2013-01-18 12:26:00,45.4,33.0,30.21,NE,34,7.0,18.0,63,0.00,,,0.00,weatherlink.com 1.10,2013-01-18 17:26:00,
2013-01-18 12:40:00,45.7,33.0,30.21,NE,44,10.0,15.0,62,0.00,,,0.00,weatherlink.com 1.10,2013-01-18 17:40:00,
2013-01-18 12:56:00,45.9,32.0,30.22,NNE,19,4.0,14.0,59,0.00,,,0.00,weatherlink.com 1.10,2013-01-18 17:56:00,
2013-01-18 13:10:00,46.2,32.0,30.22,NE,43,10.0,14.0,58,0.00,,,0.00,weatherlink.com 1.10,2013-01-18 18:10:00,
2013-01-18 13:26:00,46.0,31.0,30.22,NE,50,9.0,17.0,57,0.00,,,0.00,weatherlink.com 1.10,2013-01-18 18:26:00,
2013-01-18 13:41:00,46.0,31.0,30.22,NNE,32,7.0,18.0,56,0.00,,,0.00,weatherlink.com 1.10,2013-01-18 18:41:00,
2013-01-18 13:56:00,46.8,32.0,30.23,ENE,63,13.0,18.0,56,0.00,,,0.00,weatherlink.com 1.10,2013-01-18 18:56:00,
2013-01-18 14:11:00,46.8,32.0,30.23,NE,46,7.0,17.0,57,0.00,,,0.00,weatherlink.com 1.10,2013-01-18 19:11:00,
2013-01-18 14:26:00,47.6,32.0,30.23,NNE,25,7.0,15.0,56,0.00,,,0.00,weatherlink.com 1.10,2013-01-18 19:26:00,
2013-01-18 14:41:00,47.4,31.0,30.23,North,351,5.0,12.0,54,0.00,,,0.00,weatherlink.com 1.10,2013-01-18 19:41:00,
2013-01-18 14:56:00,47.4,30.0,30.23,NE,53,14.0,14.0,52,0.00,,,0.00,weatherlink.com 1.10,2013-01-18 19:56:00,
2013-01-18 15:11:00,47.6,30.0,30.23,ENE,62,13.0,16.0,50,0.00,,,0.00,weatherlink.com 1.10,2013-01-18 20:11:00,
2013-01-18 15:27:00,47.7,30.0,30.24,NE,34,9.0,13.0,51,0.00,,,0.00,weatherlink.com 1.10,2013-01-18 20:27:00,
2013-01-18 15:42:00,47.6,28.0,30.25,ENE,59,15.0,17.0,46,0.00,,,0.00,weatherlink.com 1.10,2013-01-18 20:42:00,
2013-01-18 15:57:00,47.4,28.0,30.25,ENE,75,7.0,17.0,47,0.00,,,0.00,weatherlink.com 1.10,2013-01-18 20:57:00,
2013-01-18 16:12:00,47.2,30.0,30.26,ENE,62,12.0,13.0,52,0.00,,,0.00,weatherlink.com 1.10,2013-01-18 21:12:00,
2013-01-18 16:27:00,46.8,29.0,30.26,ENE,72,6.0,14.0,50,0.00,,,0.00,weatherlink.com 1.10,2013-01-18 21:27:00,
2013-01-18 16:42:00,46.5,29.0,30.27,ENE,70,11.0,13.0,50,0.00,,,0.00,weatherlink.com 1.10,2013-01-18 21:42:00,
2013-01-18 16:58:00,45.6,28.0,30.27,ENE,63,11.0,14.0,51,0.00,,,0.00,weatherlink.com 1.10,2013-01-18 21:58:00,
2013-01-18 17:13:00,45.1,28.0,30.28,ENE,63,8.0,15.0,51,0.00,,,0.00,weatherlink.com 1.10,2013-01-18 22:13:00,
2013-01-18 17:28:00,44.5,27.0,30.29,ENE,64,7.0,13.0,50,0.00,,,0.00,weatherlink.com 1.10,2013-01-18 22:28:00,
2013-01-18 17:43:00,44.0,27.0,30.30,ENE,77,6.0,10.0,51,0.00,,,0.00,weatherlink.com 1.10,2013-01-18 22:43:00,
2013-01-18 17:58:00,43.4,27.0,30.31,ENE,74,4.0,8.0,53,0.00,,,0.00,weatherlink.com 1.10,2013-01-18 22:58:00,
2013-01-18 18:13:00,42.7,28.0,30.31,ENE,72,3.0,4.0,56,0.00,,,0.00,weatherlink.com 1.10,2013-01-18 23:13:00,
2013-01-18 18:29:00,42.1,28.0,30.32,ESE,120,1.0,3.0,58,0.00,,,0.00,weatherlink.com 1.10,2013-01-18 23:29:00,
2013-01-18 18:44:00,41.9,29.0,30.32,ENE,70,4.0,5.0,60,0.00,,,0.00,weatherlink.com 1.10,2013-01-18 23:44:00,
2013-01-18 18:59:00,41.9,28.0,30.33,East,79,4.0,6.0,59,0.00,,,0.00,weatherlink.com 1.10,2013-01-18 23:59:00,
2013-01-18 19:14:00,42.0,28.0,30.34,ENE,73,4.0,6.0,59,0.00,,,0.00,weatherlink.com 1.10,2013-01-19 00:14:00,
2013-01-18 19:29:00,41.5,29.0,30.33,ENE,74,4.0,6.0,62,0.00,,,0.00,weatherlink.com 1.10,2013-01-19 00:29:00,
2013-01-18 19:44:00,41.6,30.0,30.33,East,84,5.0,8.0,63,0.00,,,0.00,weatherlink.com 1.10,2013-01-19 00:44:00,
2013-01-18 19:59:00,41.6,30.0,30.34,NE,50,4.0,8.0,63,0.00,,,0.00,weatherlink.com 1.10,2013-01-19 00:59:00,
2013-01-18 20:14:00,41.6,28.0,30.34,ENE,61,4.0,7.0,59,0.00,,,0.00,weatherlink.com 1.10,2013-01-19 01:14:00,
2013-01-18 20:29:00,41.3,27.0,30.34,ENE,68,4.0,6.0,58,0.00,,,0.00,weatherlink.com 1.10,2013-01-19 01:29:00,
2013-01-18 20:46:00,41.0,27.0,30.34,East,88,4.0,6.0,59,0.00,,,0.00,weatherlink.com 1.10,2013-01-19 01:46:00,
2013-01-18 21:01:00,40.8,27.0,30.34,ENE,63,5.0,6.0,58,0.00,,,0.00,weatherlink.com 1.10,2013-01-19 02:01:00,
2013-01-18 21:16:00,40.8,26.0,30.33,ENE,58,4.0,8.0,57,0.00,,,0.00,weatherlink.com 1.10,2013-01-19 02:16:00,
2013-01-18 21:30:00,40.4,27.0,30.33,East,97,3.0,5.0,60,0.00,,,0.00,weatherlink.com 1.10,2013-01-19 02:30:00,
2013-01-18 21:46:00,40.0,29.0,30.33,ENE,68,4.0,5.0,65,0.00,,,0.00,weatherlink.com 1.10,2013-01-19 02:46:00,
2013-01-18 22:01:00,39.7,31.0,30.33,ENE,74,5.0,6.0,70,0.00,,,0.00,weatherlink.com 1.10,2013-01-19 03:01:00,
2013-01-18 22:16:00,38.9,31.0,30.33,SSE,158,0.0,4.0,72,0.00,,,0.00,weatherlink.com 1.10,2013-01-19 03:16:00,
2013-01-18 22:30:00,37.9,31.0,30.33,East,86,1.0,1.0,75,0.00,,,0.00,weatherlink.com 1.10,2013-01-19 03:30:00,
2013-01-18 22:46:00,37.2,31.0,30.32,NNE,32,0.0,2.0,77,0.00,,,0.00,weatherlink.com 1.10,2013-01-19 03:46:00,
2013-01-18 23:01:00,35.8,31.0,30.32,NNE,13,0.0,1.0,81,0.00,,,0.00,weatherlink.com 1.10,2013-01-19 04:01:00,
2013-01-18 23:16:00,35.9,31.0,30.31,East,94,1.0,4.0,82,0.00,,,0.00,weatherlink.com 1.10,2013-01-19 04:16:00,
2013-01-18 23:31:00,38.2,31.0,30.31,ENE,67,7.0,7.0,75,0.00,,,0.00,weatherlink.com 1.10,2013-01-19 04:31:00,
2013-01-18 23:46:00,38.8,30.0,30.31,NE,47,4.0,7.0,72,0.00,,,0.00,weatherlink.com 1.10,2013-01-19 04:46:00,